sensor_id;sensor_type;location;lat;lon;timestamp;P1;durP1;ratioP1;P2;durP2;ratioP2
21780;SDS011;52576;53.614;9.894;2022-11-11T00:01:09;17.42;;;3.13;;
21780;SDS011;52576;53.614;9.894;2022-11-11T00:02:34;11.77;;;3.55;;
21780;SDS011;52576;53.614;9.894;2022-11-11T00:03:56;10.45;;;3.20;;
21780;SDS011;52576;53.614;9.894;2022-11-11T00:05:23;13.57;;;3.72;;
21780;SDS011;52576;53.614;9.894;2022-11-11T00:06:45;13.45;;;3.78;;
21780;SDS011;52576;53.614;9.894;2022-11-11T00:08:07;12.55;;;3.90;;
21780;SDS011;52576;53.614;9.894;2022-11-11T00:09:29;11.20;;;3.60;;
21780;SDS011;52576;53.614;9.894;2022-11-11T00:10:50;12.27;;;3.30;;
21780;SDS011;52576;53.614;9.894;2022-11-11T00:12:11;17.35;;;3.90;;
21780;SDS011;52576;53.614;9.894;2022-11-11T00:13:33;13.00;;;3.70;;
21780;SDS011;52576;53.614;9.894;2022-11-11T00:14:55;12.48;;;3.90;;
21780;SDS011;52576;53.614;9.894;2022-11-11T00:16:17;12.45;;;3.58;;
21780;SDS011;52576;53.614;9.894;2022-11-11T00:17:40;15.55;;;3.95;;
21780;SDS011;52576;53.614;9.894;2022-11-11T00:19:19;17.33;;;4.57;;
21780;SDS011;52576;53.614;9.894;2022-11-11T00:20:58;15.00;;;4.10;;
21780;SDS011;52576;53.614;9.894;2022-11-11T00:22:37;15.85;;;4.50;;
21780;SDS011;52576;53.614;9.894;2022-11-11T00:24:20;13.20;;;4.55;;
21780;SDS011;52576;53.614;9.894;2022-11-11T00:26:01;9.60;;;4.43;;
21780;SDS011;52576;53.614;9.894;2022-11-11T00:27:44;11.82;;;4.40;;
21780;SDS011;52576;53.614;9.894;2022-11-11T00:29:05;10.57;;;4.40;;
21780;SDS011;52576;53.614;9.894;2022-11-11T00:30:26;15.50;;;5.10;;
21780;SDS011;52576;53.614;9.894;2022-11-11T00:31:47;12.23;;;4.40;;
21780;SDS011;52576;53.614;9.894;2022-11-11T00:33:28;10.63;;;4.70;;
21780;SDS011;52576;53.614;9.894;2022-11-11T00:34:50;9.52;;;3.85;;
21780;SDS011;52576;53.614;9.894;2022-11-11T00:36:29;16.20;;;4.38;;
21780;SDS011;52576;53.614;9.894;2022-11-11T00:37:51;12.82;;;4.38;;
21780;SDS011;52576;53.614;9.894;2022-11-11T00:39:11;12.15;;;4.60;;
21780;SDS011;52576;53.614;9.894;2022-11-11T00:40:33;12.48;;;4.60;;
21780;SDS011;52576;53.614;9.894;2022-11-11T00:41:54;10.77;;;4.53;;
21780;SDS011;52576;53.614;9.894;2022-11-11T00:43:16;17.65;;;4.88;;
21780;SDS011;52576;53.614;9.894;2022-11-11T00:44:38;17.60;;;4.57;;
21780;SDS011;52576;53.614;9.894;2022-11-11T00:45:58;11.20;;;4.18;;
21780;SDS011;52576;53.614;9.894;2022-11-11T00:47:33;14.55;;;4.38;;
21780;SDS011;52576;53.614;9.894;2022-11-11T00:49:14;11.60;;;4.38;;
21780;SDS011;52576;53.614;9.894;2022-11-11T00:50:53;11.88;;;4.38;;
21780;SDS011;52576;53.614;9.894;2022-11-11T00:52:18;15.23;;;4.55;;
21780;SDS011;52576;53.614;9.894;2022-11-11T00:53:39;10.93;;;4.60;;
21780;SDS011;52576;53.614;9.894;2022-11-11T00:55:01;11.02;;;4.03;;
21780;SDS011;52576;53.614;9.894;2022-11-11T00:57:43;14.85;;;4.60;;
21780;SDS011;52576;53.614;9.894;2022-11-11T00:59:04;14.65;;;4.50;;
21780;SDS011;52576;53.614;9.894;2022-11-11T01:00:27;13.70;;;4.25;;
21780;SDS011;52576;53.614;9.894;2022-11-11T01:01:48;12.10;;;4.22;;
21780;SDS011;52576;53.614;9.894;2022-11-11T01:03:09;10.57;;;4.20;;
21780;SDS011;52576;53.614;9.894;2022-11-11T01:04:31;13.80;;;4.28;;
21780;SDS011;52576;53.614;9.894;2022-11-11T01:05:53;15.75;;;4.13;;
21780;SDS011;52576;53.614;9.894;2022-11-11T01:07:14;12.52;;;4.00;;
21780;SDS011;52576;53.614;9.894;2022-11-11T01:08:36;15.85;;;4.15;;
21780;SDS011;52576;53.614;9.894;2022-11-11T01:09:57;14.98;;;4.68;;
21780;SDS011;52576;53.614;9.894;2022-11-11T01:11:18;14.85;;;4.13;;
21780;SDS011;52576;53.614;9.894;2022-11-11T01:12:41;14.65;;;3.90;;
21780;SDS011;52576;53.614;9.894;2022-11-11T01:14:02;12.27;;;4.10;;
21780;SDS011;52576;53.614;9.894;2022-11-11T01:15:23;13.23;;;4.20;;
21780;SDS011;52576;53.614;9.894;2022-11-11T01:16:44;16.63;;;4.10;;
21780;SDS011;52576;53.614;9.894;2022-11-11T01:18:06;13.73;;;3.88;;
21780;SDS011;52576;53.614;9.894;2022-11-11T01:19:28;13.35;;;4.30;;
21780;SDS011;52576;53.614;9.894;2022-11-11T01:20:57;12.63;;;4.28;;
21780;SDS011;52576;53.614;9.894;2022-11-11T01:22:19;12.05;;;3.92;;
21780;SDS011;52576;53.614;9.894;2022-11-11T01:23:41;15.77;;;4.35;;
21780;SDS011;52576;53.614;9.894;2022-11-11T01:25:05;12.70;;;4.13;;
21780;SDS011;52576;53.614;9.894;2022-11-11T01:26:26;12.75;;;3.97;;
21780;SDS011;52576;53.614;9.894;2022-11-11T01:27:50;12.38;;;3.95;;
21780;SDS011;52576;53.614;9.894;2022-11-11T01:29:11;8.30;;;4.22;;
21780;SDS011;52576;53.614;9.894;2022-11-11T01:30:33;12.27;;;4.35;;
21780;SDS011;52576;53.614;9.894;2022-11-11T01:31:55;13.68;;;4.32;;
21780;SDS011;52576;53.614;9.894;2022-11-11T01:33:17;11.18;;;3.72;;
21780;SDS011;52576;53.614;9.894;2022-11-11T01:34:38;13.68;;;4.15;;
21780;SDS011;52576;53.614;9.894;2022-11-11T01:36:05;11.18;;;3.90;;
21780;SDS011;52576;53.614;9.894;2022-11-11T01:37:27;12.45;;;4.18;;
21780;SDS011;52576;53.614;9.894;2022-11-11T01:38:49;10.13;;;3.70;;
21780;SDS011;52576;53.614;9.894;2022-11-11T01:40:12;15.52;;;4.15;;
21780;SDS011;52576;53.614;9.894;2022-11-11T01:41:34;12.55;;;3.70;;
21780;SDS011;52576;53.614;9.894;2022-11-11T01:43:14;14.00;;;3.90;;
21780;SDS011;52576;53.614;9.894;2022-11-11T01:44:41;13.13;;;4.28;;
21780;SDS011;52576;53.614;9.894;2022-11-11T01:46:08;15.25;;;4.07;;
21780;SDS011;52576;53.614;9.894;2022-11-11T01:47:40;14.82;;;4.53;;
21780;SDS011;52576;53.614;9.894;2022-11-11T01:49:42;13.07;;;3.60;;
21780;SDS011;52576;53.614;9.894;2022-11-11T01:51:13;14.65;;;4.28;;
21780;SDS011;52576;53.614;9.894;2022-11-11T01:52:39;10.60;;;4.22;;
21780;SDS011;52576;53.614;9.894;2022-11-11T01:54:05;16.15;;;4.30;;
21780;SDS011;52576;53.614;9.894;2022-11-11T01:55:28;14.00;;;4.30;;
21780;SDS011;52576;53.614;9.894;2022-11-11T01:56:51;15.15;;;4.55;;
21780;SDS011;52576;53.614;9.894;2022-11-11T01:58:18;15.95;;;4.03;;
21780;SDS011;52576;53.614;9.894;2022-11-11T01:59:41;10.23;;;4.10;;
21780;SDS011;52576;53.614;9.894;2022-11-11T02:01:06;15.07;;;4.28;;
21780;SDS011;52576;53.614;9.894;2022-11-11T02:02:28;11.88;;;4.60;;
21780;SDS011;52576;53.614;9.894;2022-11-11T02:03:54;14.70;;;4.28;;
21780;SDS011;52576;53.614;9.894;2022-11-11T02:05:36;19.75;;;4.32;;
21780;SDS011;52576;53.614;9.894;2022-11-11T02:07:06;13.10;;;3.95;;
21780;SDS011;52576;53.614;9.894;2022-11-11T02:08:31;9.93;;;4.38;;
21780;SDS011;52576;53.614;9.894;2022-11-11T02:09:54;13.00;;;4.25;;
21780;SDS011;52576;53.614;9.894;2022-11-11T02:11:17;14.85;;;4.15;;
21780;SDS011;52576;53.614;9.894;2022-11-11T02:12:56;11.57;;;4.20;;
21780;SDS011;52576;53.614;9.894;2022-11-11T02:14:37;14.85;;;4.80;;
21780;SDS011;52576;53.614;9.894;2022-11-11T02:16:02;17.83;;;4.85;;
21780;SDS011;52576;53.614;9.894;2022-11-11T02:17:24;13.23;;;4.50;;
21780;SDS011;52576;53.614;9.894;2022-11-11T02:18:48;15.55;;;4.75;;
21780;SDS011;52576;53.614;9.894;2022-11-11T02:20:10;11.48;;;4.90;;
21780;SDS011;52576;53.614;9.894;2022-11-11T02:21:36;14.45;;;5.28;;
21780;SDS011;52576;53.614;9.894;2022-11-11T02:23:08;14.68;;;5.40;;
21780;SDS011;52576;53.614;9.894;2022-11-11T02:24:34;16.80;;;5.78;;
21780;SDS011;52576;53.614;9.894;2022-11-11T02:25:56;17.30;;;6.07;;
21780;SDS011;52576;53.614;9.894;2022-11-11T02:27:22;17.73;;;5.22;;
21780;SDS011;52576;53.614;9.894;2022-11-11T02:28:45;23.48;;;5.80;;
21780;SDS011;52576;53.614;9.894;2022-11-11T02:30:08;14.98;;;4.95;;
21780;SDS011;52576;53.614;9.894;2022-11-11T02:31:35;13.75;;;4.70;;
21780;SDS011;52576;53.614;9.894;2022-11-11T02:32:57;10.55;;;4.85;;
21780;SDS011;52576;53.614;9.894;2022-11-11T02:34:19;20.73;;;5.13;;
21780;SDS011;52576;53.614;9.894;2022-11-11T02:35:40;11.23;;;4.78;;
21780;SDS011;52576;53.614;9.894;2022-11-11T02:37:05;10.80;;;4.80;;
21780;SDS011;52576;53.614;9.894;2022-11-11T02:38:28;11.77;;;4.40;;
21780;SDS011;52576;53.614;9.894;2022-11-11T02:39:53;15.45;;;4.68;;
21780;SDS011;52576;53.614;9.894;2022-11-11T02:41:24;10.63;;;4.47;;
21780;SDS011;52576;53.614;9.894;2022-11-11T02:43:03;12.55;;;4.30;;
21780;SDS011;52576;53.614;9.894;2022-11-11T02:44:26;10.35;;;4.57;;
21780;SDS011;52576;53.614;9.894;2022-11-11T02:45:47;16.38;;;4.85;;
21780;SDS011;52576;53.614;9.894;2022-11-11T02:47:08;14.75;;;4.47;;
21780;SDS011;52576;53.614;9.894;2022-11-11T02:48:30;12.70;;;4.45;;
21780;SDS011;52576;53.614;9.894;2022-11-11T02:49:51;13.82;;;4.35;;
21780;SDS011;52576;53.614;9.894;2022-11-11T02:51:13;9.73;;;4.20;;
21780;SDS011;52576;53.614;9.894;2022-11-11T02:52:34;13.68;;;4.20;;
21780;SDS011;52576;53.614;9.894;2022-11-11T02:53:56;13.95;;;3.95;;
21780;SDS011;52576;53.614;9.894;2022-11-11T02:55:23;12.25;;;4.18;;
21780;SDS011;52576;53.614;9.894;2022-11-11T02:56:45;12.95;;;4.40;;
21780;SDS011;52576;53.614;9.894;2022-11-11T02:58:24;14.75;;;4.65;;
21780;SDS011;52576;53.614;9.894;2022-11-11T02:59:46;11.82;;;4.28;;
21780;SDS011;52576;53.614;9.894;2022-11-11T03:01:07;13.55;;;3.90;;
21780;SDS011;52576;53.614;9.894;2022-11-11T03:02:28;9.68;;;4.03;;
21780;SDS011;52576;53.614;9.894;2022-11-11T03:03:50;8.68;;;4.43;;
21780;SDS011;52576;53.614;9.894;2022-11-11T03:05:11;16.05;;;4.93;;
21780;SDS011;52576;53.614;9.894;2022-11-11T03:06:33;17.83;;;4.35;;
21780;SDS011;52576;53.614;9.894;2022-11-11T03:07:53;18.85;;;4.68;;
21780;SDS011;52576;53.614;9.894;2022-11-11T03:09:15;11.50;;;4.05;;
21780;SDS011;52576;53.614;9.894;2022-11-11T03:10:37;8.82;;;4.18;;
21780;SDS011;52576;53.614;9.894;2022-11-11T03:11:59;9.60;;;4.05;;
21780;SDS011;52576;53.614;9.894;2022-11-11T03:13:21;14.95;;;4.30;;
21780;SDS011;52576;53.614;9.894;2022-11-11T03:14:42;13.30;;;4.72;;
21780;SDS011;52576;53.614;9.894;2022-11-11T03:16:04;11.85;;;4.50;;
21780;SDS011;52576;53.614;9.894;2022-11-11T03:17:25;10.13;;;4.35;;
21780;SDS011;52576;53.614;9.894;2022-11-11T03:19:02;9.52;;;4.20;;
21780;SDS011;52576;53.614;9.894;2022-11-11T03:22:03;10.73;;;4.43;;
21780;SDS011;52576;53.614;9.894;2022-11-11T03:23:45;13.48;;;4.50;;
21780;SDS011;52576;53.614;9.894;2022-11-11T03:25:06;12.13;;;4.80;;
21780;SDS011;52576;53.614;9.894;2022-11-11T03:26:47;17.25;;;4.78;;
21780;SDS011;52576;53.614;9.894;2022-11-11T03:28:09;13.73;;;4.43;;
21780;SDS011;52576;53.614;9.894;2022-11-11T03:29:32;13.45;;;4.70;;
21780;SDS011;52576;53.614;9.894;2022-11-11T03:30:52;15.00;;;4.75;;
21780;SDS011;52576;53.614;9.894;2022-11-11T03:32:14;13.00;;;4.68;;
21780;SDS011;52576;53.614;9.894;2022-11-11T03:33:35;14.15;;;4.55;;
21780;SDS011;52576;53.614;9.894;2022-11-11T03:34:56;14.25;;;4.22;;
21780;SDS011;52576;53.614;9.894;2022-11-11T03:36:17;11.02;;;4.63;;
21780;SDS011;52576;53.614;9.894;2022-11-11T03:37:38;13.18;;;4.10;;
21780;SDS011;52576;53.614;9.894;2022-11-11T03:39:18;11.27;;;4.43;;
21780;SDS011;52576;53.614;9.894;2022-11-11T03:40:39;11.85;;;4.57;;
21780;SDS011;52576;53.614;9.894;2022-11-11T03:42:02;12.10;;;4.32;;
21780;SDS011;52576;53.614;9.894;2022-11-11T03:43:23;13.82;;;4.45;;
21780;SDS011;52576;53.614;9.894;2022-11-11T03:44:46;15.70;;;4.72;;
21780;SDS011;52576;53.614;9.894;2022-11-11T03:46:07;14.65;;;4.10;;
21780;SDS011;52576;53.614;9.894;2022-11-11T03:47:29;9.80;;;4.07;;
21780;SDS011;52576;53.614;9.894;2022-11-11T03:48:49;12.02;;;4.68;;
21780;SDS011;52576;53.614;9.894;2022-11-11T03:50:11;8.95;;;4.18;;
21780;SDS011;52576;53.614;9.894;2022-11-11T03:52:54;12.63;;;4.32;;
21780;SDS011;52576;53.614;9.894;2022-11-11T03:54:15;8.80;;;3.95;;
21780;SDS011;52576;53.614;9.894;2022-11-11T03:55:37;16.70;;;5.00;;
21780;SDS011;52576;53.614;9.894;2022-11-11T03:56:58;15.32;;;4.55;;
21780;SDS011;52576;53.614;9.894;2022-11-11T03:58:35;13.68;;;4.93;;
21780;SDS011;52576;53.614;9.894;2022-11-11T03:59:57;15.00;;;4.60;;
21780;SDS011;52576;53.614;9.894;2022-11-11T04:01:18;15.50;;;4.55;;
21780;SDS011;52576;53.614;9.894;2022-11-11T04:03:00;13.63;;;4.25;;
21780;SDS011;52576;53.614;9.894;2022-11-11T04:04:39;11.25;;;4.60;;
21780;SDS011;52576;53.614;9.894;2022-11-11T04:06:18;12.18;;;4.72;;
21780;SDS011;52576;53.614;9.894;2022-11-11T04:07:58;14.50;;;4.72;;
21780;SDS011;52576;53.614;9.894;2022-11-11T04:09:37;17.50;;;5.13;;
21780;SDS011;52576;53.614;9.894;2022-11-11T04:12:59;14.25;;;4.78;;
21780;SDS011;52576;53.614;9.894;2022-11-11T04:14:40;15.77;;;4.78;;
21780;SDS011;52576;53.614;9.894;2022-11-11T04:16:19;12.70;;;5.13;;
21780;SDS011;52576;53.614;9.894;2022-11-11T04:17:40;19.35;;;5.00;;
21780;SDS011;52576;53.614;9.894;2022-11-11T04:19:01;13.38;;;5.28;;
21780;SDS011;52576;53.614;9.894;2022-11-11T04:20:41;13.45;;;4.78;;
21780;SDS011;52576;53.614;9.894;2022-11-11T04:22:32;14.88;;;5.25;;
21780;SDS011;52576;53.614;9.894;2022-11-11T04:23:59;11.65;;;4.82;;
21780;SDS011;52576;53.614;9.894;2022-11-11T04:25:19;14.63;;;4.35;;
21780;SDS011;52576;53.614;9.894;2022-11-11T04:27:01;12.85;;;5.30;;
21780;SDS011;52576;53.614;9.894;2022-11-11T04:28:25;13.30;;;4.60;;
21780;SDS011;52576;53.614;9.894;2022-11-11T04:30:06;12.07;;;5.15;;
21780;SDS011;52576;53.614;9.894;2022-11-11T04:31:27;14.40;;;5.18;;
21780;SDS011;52576;53.614;9.894;2022-11-11T04:32:49;12.43;;;4.85;;
21780;SDS011;52576;53.614;9.894;2022-11-11T04:34:10;13.45;;;5.30;;
21780;SDS011;52576;53.614;9.894;2022-11-11T04:35:31;14.27;;;5.10;;
21780;SDS011;52576;53.614;9.894;2022-11-11T04:36:52;13.90;;;5.43;;
21780;SDS011;52576;53.614;9.894;2022-11-11T04:38:13;12.32;;;4.88;;
21780;SDS011;52576;53.614;9.894;2022-11-11T04:39:52;14.48;;;5.00;;
21780;SDS011;52576;53.614;9.894;2022-11-11T04:41:32;11.35;;;4.70;;
21780;SDS011;52576;53.614;9.894;2022-11-11T04:43:14;12.25;;;4.78;;
21780;SDS011;52576;53.614;9.894;2022-11-11T04:44:35;13.32;;;5.50;;
21780;SDS011;52576;53.614;9.894;2022-11-11T04:46:16;15.57;;;5.55;;
21780;SDS011;52576;53.614;9.894;2022-11-11T04:47:36;17.70;;;5.15;;
21780;SDS011;52576;53.614;9.894;2022-11-11T04:48:58;17.33;;;5.50;;
21780;SDS011;52576;53.614;9.894;2022-11-11T04:50:19;17.10;;;5.40;;
21780;SDS011;52576;53.614;9.894;2022-11-11T04:51:40;16.48;;;5.15;;
21780;SDS011;52576;53.614;9.894;2022-11-11T04:53:20;12.68;;;5.00;;
21780;SDS011;52576;53.614;9.894;2022-11-11T04:54:42;17.00;;;5.95;;
21780;SDS011;52576;53.614;9.894;2022-11-11T04:56:17;15.27;;;5.38;;
21780;SDS011;52576;53.614;9.894;2022-11-11T04:57:56;15.48;;;5.40;;
21780;SDS011;52576;53.614;9.894;2022-11-11T04:59:18;15.52;;;5.93;;
21780;SDS011;52576;53.614;9.894;2022-11-11T05:02:02;14.40;;;5.53;;
21780;SDS011;52576;53.614;9.894;2022-11-11T05:03:55;12.55;;;4.88;;
21780;SDS011;52576;53.614;9.894;2022-11-11T05:05:16;14.48;;;5.30;;
21780;SDS011;52576;53.614;9.894;2022-11-11T05:06:38;16.10;;;5.72;;
21780;SDS011;52576;53.614;9.894;2022-11-11T05:08:19;13.55;;;4.95;;
21780;SDS011;52576;53.614;9.894;2022-11-11T05:09:58;14.07;;;5.20;;
21780;SDS011;52576;53.614;9.894;2022-11-11T05:11:19;12.15;;;5.38;;
21780;SDS011;52576;53.614;9.894;2022-11-11T05:12:45;11.55;;;5.40;;
21780;SDS011;52576;53.614;9.894;2022-11-11T05:14:06;15.02;;;6.32;;
21780;SDS011;52576;53.614;9.894;2022-11-11T05:15:45;13.13;;;5.45;;
21780;SDS011;52576;53.614;9.894;2022-11-11T05:17:25;13.23;;;5.15;;
21780;SDS011;52576;53.614;9.894;2022-11-11T05:19:05;18.13;;;5.78;;
21780;SDS011;52576;53.614;9.894;2022-11-11T05:20:47;15.23;;;5.25;;
21780;SDS011;52576;53.614;9.894;2022-11-11T05:22:28;16.60;;;5.50;;
21780;SDS011;52576;53.614;9.894;2022-11-11T05:23:52;13.70;;;5.82;;
21780;SDS011;52576;53.614;9.894;2022-11-11T05:25:32;12.23;;;5.78;;
21780;SDS011;52576;53.614;9.894;2022-11-11T05:26:52;19.80;;;6.10;;
21780;SDS011;52576;53.614;9.894;2022-11-11T05:28:14;15.70;;;5.65;;
21780;SDS011;52576;53.614;9.894;2022-11-11T05:29:35;12.80;;;5.40;;
21780;SDS011;52576;53.614;9.894;2022-11-11T05:30:56;15.90;;;5.97;;
21780;SDS011;52576;53.614;9.894;2022-11-11T05:32:18;15.18;;;5.78;;
21780;SDS011;52576;53.614;9.894;2022-11-11T05:33:41;14.13;;;5.72;;
21780;SDS011;52576;53.614;9.894;2022-11-11T05:35:03;13.70;;;5.75;;
21780;SDS011;52576;53.614;9.894;2022-11-11T05:36:25;16.13;;;5.85;;
21780;SDS011;52576;53.614;9.894;2022-11-11T05:37:46;12.23;;;5.47;;
21780;SDS011;52576;53.614;9.894;2022-11-11T05:39:29;15.57;;;5.90;;
21780;SDS011;52576;53.614;9.894;2022-11-11T05:40:50;15.35;;;5.65;;
21780;SDS011;52576;53.614;9.894;2022-11-11T05:42:11;13.63;;;5.63;;
21780;SDS011;52576;53.614;9.894;2022-11-11T05:43:33;12.40;;;5.53;;
21780;SDS011;52576;53.614;9.894;2022-11-11T05:44:53;15.18;;;5.65;;
21780;SDS011;52576;53.614;9.894;2022-11-11T05:46:15;14.38;;;6.05;;
21780;SDS011;52576;53.614;9.894;2022-11-11T05:47:36;14.23;;;6.10;;
21780;SDS011;52576;53.614;9.894;2022-11-11T05:48:58;18.08;;;6.00;;
21780;SDS011;52576;53.614;9.894;2022-11-11T05:50:34;14.95;;;6.63;;
21780;SDS011;52576;53.614;9.894;2022-11-11T05:52:00;16.23;;;6.43;;
21780;SDS011;52576;53.614;9.894;2022-11-11T05:53:21;12.82;;;6.63;;
21780;SDS011;52576;53.614;9.894;2022-11-11T05:54:44;15.32;;;6.30;;
21780;SDS011;52576;53.614;9.894;2022-11-11T05:56:06;16.35;;;6.43;;
21780;SDS011;52576;53.614;9.894;2022-11-11T05:57:27;13.93;;;6.45;;
21780;SDS011;52576;53.614;9.894;2022-11-11T05:58:49;16.77;;;6.75;;
21780;SDS011;52576;53.614;9.894;2022-11-11T06:00:10;18.15;;;6.88;;
21780;SDS011;52576;53.614;9.894;2022-11-11T06:01:32;14.80;;;6.20;;
21780;SDS011;52576;53.614;9.894;2022-11-11T06:03:00;16.67;;;6.40;;
21780;SDS011;52576;53.614;9.894;2022-11-11T06:04:23;16.73;;;6.57;;
21780;SDS011;52576;53.614;9.894;2022-11-11T06:05:45;17.73;;;6.93;;
21780;SDS011;52576;53.614;9.894;2022-11-11T06:07:07;19.08;;;6.88;;
21780;SDS011;52576;53.614;9.894;2022-11-11T06:08:29;19.05;;;7.25;;
21780;SDS011;52576;53.614;9.894;2022-11-11T06:09:49;17.52;;;7.15;;
21780;SDS011;52576;53.614;9.894;2022-11-11T06:11:11;17.67;;;6.88;;
21780;SDS011;52576;53.614;9.894;2022-11-11T06:12:32;13.35;;;6.50;;
21780;SDS011;52576;53.614;9.894;2022-11-11T06:14:13;13.15;;;6.95;;
21780;SDS011;52576;53.614;9.894;2022-11-11T06:15:35;16.17;;;7.28;;
21780;SDS011;52576;53.614;9.894;2022-11-11T06:16:57;18.48;;;7.35;;
21780;SDS011;52576;53.614;9.894;2022-11-11T06:18:19;18.10;;;7.57;;
21780;SDS011;52576;53.614;9.894;2022-11-11T06:21:03;15.80;;;7.55;;
21780;SDS011;52576;53.614;9.894;2022-11-11T06:22:24;21.75;;;7.80;;
21780;SDS011;52576;53.614;9.894;2022-11-11T06:23:59;20.08;;;8.32;;
21780;SDS011;52576;53.614;9.894;2022-11-11T06:25:21;19.65;;;7.85;;
21780;SDS011;52576;53.614;9.894;2022-11-11T06:27:00;18.92;;;8.07;;
21780;SDS011;52576;53.614;9.894;2022-11-11T06:28:22;18.25;;;8.05;;
21780;SDS011;52576;53.614;9.894;2022-11-11T06:29:42;17.85;;;8.00;;
21780;SDS011;52576;53.614;9.894;2022-11-11T06:31:04;18.15;;;7.95;;
21780;SDS011;52576;53.614;9.894;2022-11-11T06:32:27;20.25;;;7.95;;
21780;SDS011;52576;53.614;9.894;2022-11-11T06:33:49;17.85;;;9.07;;
21780;SDS011;52576;53.614;9.894;2022-11-11T06:35:12;18.95;;;8.30;;
21780;SDS011;52576;53.614;9.894;2022-11-11T06:36:33;17.00;;;7.75;;
21780;SDS011;52576;53.614;9.894;2022-11-11T06:37:54;22.17;;;8.85;;
21780;SDS011;52576;53.614;9.894;2022-11-11T06:39:16;17.00;;;7.78;;
21780;SDS011;52576;53.614;9.894;2022-11-11T06:40:37;18.15;;;8.20;;
21780;SDS011;52576;53.614;9.894;2022-11-11T06:43:20;20.15;;;8.77;;
21780;SDS011;52576;53.614;9.894;2022-11-11T06:44:42;18.40;;;8.70;;
21780;SDS011;52576;53.614;9.894;2022-11-11T06:46:04;19.77;;;8.02;;
21780;SDS011;52576;53.614;9.894;2022-11-11T06:47:26;18.90;;;9.25;;
21780;SDS011;52576;53.614;9.894;2022-11-11T06:48:46;21.95;;;8.90;;
21780;SDS011;52576;53.614;9.894;2022-11-11T06:50:08;17.05;;;8.90;;
21780;SDS011;52576;53.614;9.894;2022-11-11T06:51:30;21.00;;;9.07;;
21780;SDS011;52576;53.614;9.894;2022-11-11T06:52:52;24.75;;;8.98;;
21780;SDS011;52576;53.614;9.894;2022-11-11T06:54:12;21.13;;;9.48;;
21780;SDS011;52576;53.614;9.894;2022-11-11T06:55:34;25.50;;;9.88;;
21780;SDS011;52576;53.614;9.894;2022-11-11T06:56:55;23.58;;;10.27;;
21780;SDS011;52576;53.614;9.894;2022-11-11T06:58:17;21.02;;;9.82;;
21780;SDS011;52576;53.614;9.894;2022-11-11T06:59:40;27.25;;;10.02;;
21780;SDS011;52576;53.614;9.894;2022-11-11T07:01:03;18.77;;;10.40;;
21780;SDS011;52576;53.614;9.894;2022-11-11T07:02:25;22.05;;;10.35;;
21780;SDS011;52576;53.614;9.894;2022-11-11T07:03:46;22.38;;;10.10;;
21780;SDS011;52576;53.614;9.894;2022-11-11T07:05:07;21.70;;;9.98;;
21780;SDS011;52576;53.614;9.894;2022-11-11T07:06:31;25.10;;;11.35;;
21780;SDS011;52576;53.614;9.894;2022-11-11T07:07:52;19.90;;;11.02;;
21780;SDS011;52576;53.614;9.894;2022-11-11T07:09:13;25.77;;;11.52;;
21780;SDS011;52576;53.614;9.894;2022-11-11T07:10:35;23.85;;;11.63;;
21780;SDS011;52576;53.614;9.894;2022-11-11T07:11:59;28.73;;;11.68;;
21780;SDS011;52576;53.614;9.894;2022-11-11T07:13:20;27.10;;;10.88;;
21780;SDS011;52576;53.614;9.894;2022-11-11T07:14:42;25.67;;;11.20;;
21780;SDS011;52576;53.614;9.894;2022-11-11T07:16:03;18.58;;;11.43;;
21780;SDS011;52576;53.614;9.894;2022-11-11T07:17:25;26.83;;;11.82;;
21780;SDS011;52576;53.614;9.894;2022-11-11T07:18:46;25.73;;;11.43;;
21780;SDS011;52576;53.614;9.894;2022-11-11T07:20:08;27.40;;;11.82;;
21780;SDS011;52576;53.614;9.894;2022-11-11T07:21:31;21.08;;;12.18;;
21780;SDS011;52576;53.614;9.894;2022-11-11T07:22:52;20.70;;;11.25;;
21780;SDS011;52576;53.614;9.894;2022-11-11T07:24:14;28.63;;;12.05;;
21780;SDS011;52576;53.614;9.894;2022-11-11T07:25:36;22.52;;;11.55;;
21780;SDS011;52576;53.614;9.894;2022-11-11T07:26:57;22.25;;;11.77;;
21780;SDS011;52576;53.614;9.894;2022-11-11T07:28:18;25.35;;;11.20;;
21780;SDS011;52576;53.614;9.894;2022-11-11T07:29:40;22.90;;;11.35;;
21780;SDS011;52576;53.614;9.894;2022-11-11T07:31:00;24.02;;;11.93;;
21780;SDS011;52576;53.614;9.894;2022-11-11T07:32:26;23.45;;;11.98;;
21780;SDS011;52576;53.614;9.894;2022-11-11T07:33:48;25.35;;;12.13;;
21780;SDS011;52576;53.614;9.894;2022-11-11T07:35:09;25.90;;;11.90;;
21780;SDS011;52576;53.614;9.894;2022-11-11T07:36:34;24.58;;;11.75;;
21780;SDS011;52576;53.614;9.894;2022-11-11T07:37:56;26.83;;;12.20;;
21780;SDS011;52576;53.614;9.894;2022-11-11T07:39:17;22.52;;;12.07;;
21780;SDS011;52576;53.614;9.894;2022-11-11T07:40:38;30.92;;;12.38;;
21780;SDS011;52576;53.614;9.894;2022-11-11T07:42:00;30.33;;;11.63;;
21780;SDS011;52576;53.614;9.894;2022-11-11T07:43:21;29.42;;;11.68;;
21780;SDS011;52576;53.614;9.894;2022-11-11T07:44:44;29.08;;;11.73;;
21780;SDS011;52576;53.614;9.894;2022-11-11T07:46:08;25.90;;;12.07;;
21780;SDS011;52576;53.614;9.894;2022-11-11T07:47:29;24.98;;;12.65;;
21780;SDS011;52576;53.614;9.894;2022-11-11T07:48:50;29.80;;;12.77;;
21780;SDS011;52576;53.614;9.894;2022-11-11T07:50:12;28.15;;;12.40;;
21780;SDS011;52576;53.614;9.894;2022-11-11T07:51:35;27.27;;;13.05;;
21780;SDS011;52576;53.614;9.894;2022-11-11T07:52:57;24.27;;;12.45;;
21780;SDS011;52576;53.614;9.894;2022-11-11T07:54:19;31.65;;;12.93;;
21780;SDS011;52576;53.614;9.894;2022-11-11T07:55:39;24.25;;;12.93;;
21780;SDS011;52576;53.614;9.894;2022-11-11T07:57:01;27.70;;;12.48;;
21780;SDS011;52576;53.614;9.894;2022-11-11T07:58:23;32.00;;;13.13;;
21780;SDS011;52576;53.614;9.894;2022-11-11T07:59:45;26.27;;;13.50;;
21780;SDS011;52576;53.614;9.894;2022-11-11T08:01:07;26.45;;;12.38;;
21780;SDS011;52576;53.614;9.894;2022-11-11T08:02:29;26.77;;;13.63;;
21780;SDS011;52576;53.614;9.894;2022-11-11T08:03:50;27.58;;;12.90;;
21780;SDS011;52576;53.614;9.894;2022-11-11T08:05:12;32.28;;;13.85;;
21780;SDS011;52576;53.614;9.894;2022-11-11T08:06:34;33.00;;;13.15;;
21780;SDS011;52576;53.614;9.894;2022-11-11T08:08:01;24.40;;;12.75;;
21780;SDS011;52576;53.614;9.894;2022-11-11T08:09:24;25.52;;;13.75;;
21780;SDS011;52576;53.614;9.894;2022-11-11T08:10:45;25.27;;;12.85;;
21780;SDS011;52576;53.614;9.894;2022-11-11T08:12:07;30.63;;;14.32;;
21780;SDS011;52576;53.614;9.894;2022-11-11T08:13:47;28.00;;;13.95;;
21780;SDS011;52576;53.614;9.894;2022-11-11T08:15:09;30.58;;;14.10;;
21780;SDS011;52576;53.614;9.894;2022-11-11T08:16:31;28.80;;;13.88;;
21780;SDS011;52576;53.614;9.894;2022-11-11T08:17:52;28.60;;;13.55;;
21780;SDS011;52576;53.614;9.894;2022-11-11T08:19:14;25.88;;;13.27;;
21780;SDS011;52576;53.614;9.894;2022-11-11T08:20:35;28.15;;;13.75;;
21780;SDS011;52576;53.614;9.894;2022-11-11T08:22:05;27.65;;;13.00;;
21780;SDS011;52576;53.614;9.894;2022-11-11T08:23:27;24.85;;;13.93;;
21780;SDS011;52576;53.614;9.894;2022-11-11T08:25:12;33.42;;;14.30;;
21780;SDS011;52576;53.614;9.894;2022-11-11T08:26:34;30.08;;;14.32;;
21780;SDS011;52576;53.614;9.894;2022-11-11T08:27:55;25.98;;;14.23;;
21780;SDS011;52576;53.614;9.894;2022-11-11T08:29:18;30.20;;;14.75;;
21780;SDS011;52576;53.614;9.894;2022-11-11T08:30:39;27.42;;;13.93;;
21780;SDS011;52576;53.614;9.894;2022-11-11T08:32:01;31.33;;;14.82;;
21780;SDS011;52576;53.614;9.894;2022-11-11T08:33:23;26.58;;;14.48;;
21780;SDS011;52576;53.614;9.894;2022-11-11T08:35:03;34.95;;;14.80;;
21780;SDS011;52576;53.614;9.894;2022-11-11T08:36:25;26.85;;;14.32;;